Latest Weather Observations for Lord Howe Island Windy Point

IDN60801

Issued at 8:03 pm EST Wednesday 2 September 2026 (issued every 10 minutes, with the page automatically refreshed every 10 minutes)

About weather observations | Map of weather stations | Latest weather observations for NSW | Other Formats
Station Details ID: 200715 Name: LORD HOWE ISLAND WINDY POINT Lat: -31.54 Lon: 159.07 Height: 4.0 m
Data from the previous 72 hours. | See also: Recent months at Lord Howe Island Windy Point
Date/Time
EST
Temp
°C
App
Temp
°C
Dew
Point
°C
Rel
Hum
%
Delta-T
°C
Wind Press
QNH
hPa
Press
MSL
hPa
Rain since
9am
mm
Dir  Spd
km/h
Gust
km/h
Spd
kts
Gust
kts
02/08:00pm - - - - - NNW 20 32 11 17 - - -
02/07:30pm - - - - - NW 17 30 9 16 - - -
02/07:00pm - - - - - NW 17 28 9 15 - - -
02/06:30pm - - - - - NW 20 33 11 18 - - -
02/06:00pm - - - - - NW 20 28 11 15 - - -
02/05:30pm - - - - - NW 20 28 11 15 - - -
02/05:00pm - - - - - NW 20 32 11 17 - - -
02/04:30pm - - - - - NW 20 37 11 20 - - -
02/04:00pm - - - - - NW 22 50 12 27 - - -
02/03:30pm - - - - - NW 24 39 13 21 - - -
02/03:00pm - - - - - NW 26 43 14 23 - - -
02/02:30pm - - - - - NW 24 39 13 21 - - -
02/02:00pm - - - - - NW 20 41 11 22 - - -
02/01:30pm - - - - - NW 28 43 15 23 - - -
02/01:24pm - - - - - NW 26 43 14 23 - - -
02/01:06pm - - - - - NW 28 46 15 25 - - -
02/01:00pm - - - - - NW 28 43 15 23 - - -
02/12:30pm - - - - - NW 30 39 16 21 - - -
02/12:22pm - - - - - NW 26 35 14 19 - - -
02/12:04pm - - - - - NW 28 46 15 25 - - -
02/12:00pm - - - - - NW 26 39 14 21 - - -
02/11:30am - - - - - NW 28 37 15 20 - - -
02/11:00am - - - - - NW 26 35 14 19 - - -
02/10:30am - - - - - NW 26 35 14 19 - - -
02/10:00am - - - - - NW 26 33 14 18 - - -
02/09:30am - - - - - NW 28 37 15 20 - - -
02/09:00am - - - - - NW 28 33 15 18 - - -
02/08:30am - - - - - NW 26 35 14 19 - - -
02/08:00am - - - - - NW 24 33 13 18 - - -
02/07:30am - - - - - NW 24 37 13 20 - - -
02/07:00am - - - - - NW 24 32 13 17 - - -
02/06:30am - - - - - NW 28 39 15 21 - - -
02/06:00am - - - - - NW 24 33 13 18 - - -
02/05:30am - - - - - NW 24 33 13 18 - - -
02/05:00am - - - - - NW 20 35 11 19 - - -
02/04:30am - - - - - NW 26 43 14 23 - - -
02/04:00am - - - - - NW 13 26 7 14 - - -
02/03:30am - - - - - NW 26 35 14 19 - - -
02/03:00am - - - - - NW 24 35 13 19 - - -
02/02:30am - - - - - NW 19 33 10 18 - - -
02/02:00am - - - - - NW 17 28 9 15 - - -
02/01:30am - - - - - NW 13 20 7 11 - - -
02/01:00am - - - - - NW 13 24 7 13 - - -
02/12:30am - - - - - NW 7 15 4 8 - - -
02/12:00am - - - - - W 7 17 4 9 - - -
 
Date/Time
EST
Temp
°C
App
Temp
°C
Dew
Point
°C
Rel
Hum
%
Delta-T
°C
Wind Press
QNH
hPa
Press
MSL
hPa
Rain since
9am
mm
Dir  Spd
km/h
Gust
km/h
Spd
kts
Gust
kts
01/11:30pm - - - - - N 6 17 3 9 - - -
01/11:00pm - - - - - NNW 9 13 5 7 - - -
01/10:30pm - - - - - NNW 9 15 5 8 - - -
01/10:00pm - - - - - NW 9 15 5 8 - - -
01/09:30pm - - - - - NW 11 17 6 9 - - -
01/09:00pm - - - - - NW 9 15 5 8 - - -
01/08:30pm - - - - - NW 6 9 3 5 - - -
01/08:00pm - - - - - NW 2 6 1 3 - - -
01/07:30pm - - - - - NW 4 7 2 4 - - -
01/07:00pm - - - - - NW 6 7 3 4 - - -
01/06:30pm - - - - - NW 6 7 3 4 - - -
01/06:00pm - - - - - NW 7 9 4 5 - - -
01/05:30pm - - - - - NW 7 11 4 6 - - -
01/05:00pm - - - - - WNW 11 15 6 8 - - -
01/04:30pm - - - - - W 11 13 6 7 - - -
01/04:00pm - - - - - W 11 15 6 8 - - -
01/03:30pm - - - - - W 13 17 7 9 - - -
01/03:00pm - - - - - W 13 17 7 9 - - -
01/02:30pm - - - - - W 15 19 8 10 - - -
01/02:00pm - - - - - W 17 20 9 11 - - -
01/01:30pm - - - - - W 17 20 9 11 - - -
01/01:00pm - - - - - W 17 20 9 11 - - -
01/12:30pm - - - - - W 17 20 9 11 - - -
01/12:00pm - - - - - W 17 20 9 11 - - -
01/11:30am - - - - - W 15 20 8 11 - - -
01/11:00am - - - - - WSW 15 19 8 10 - - -
01/10:30am - - - - - WSW 15 17 8 9 - - -
01/10:00am - - - - - WSW 15 19 8 10 - - -
01/09:30am - - - - - SW 13 15 7 8 - - -
01/09:00am - - - - - WSW 13 15 7 8 - - -
01/08:30am - - - - - SW 13 15 7 8 - - -
01/08:00am - - - - - SW 9 13 5 7 - - -
01/07:30am - - - - - SE 4 15 2 8 - - -
01/07:00am - - - - - CALM 0 0 0 0 - - -
01/06:30am - - - - - ESE 2 6 1 3 - - -
01/06:00am - - - - - ESE 4 7 2 4 - - -
01/05:30am - - - - - CALM 0 0 0 0 - - -
01/05:00am - - - - - SSE 13 17 7 9 - - -
01/04:30am - - - - - SW 17 20 9 11 - - -
01/04:00am - - - - - E 2 7 1 4 - - -
01/03:30am - - - - - SSW 9 15 5 8 - - -
01/03:00am - - - - - SSE 9 24 5 13 - - -
01/02:30am - - - - - SE 7 13 4 7 - - -
01/02:00am - - - - - SSW 20 26 11 14 - - -
01/01:30am - - - - - SE 7 13 4 7 - - -
01/01:00am - - - - - SSE 7 17 4 9 - - -
01/12:30am - - - - - SE 2 6 1 3 - - -
01/12:00am - - - - - ESE 7 9 4 5 - - -
 
Date/Time
EST
Temp
°C
App
Temp
°C
Dew
Point
°C
Rel
Hum
%
Delta-T
°C
Wind Press
QNH
hPa
Press
MSL
hPa
Rain since
9am
mm
Dir  Spd
km/h
Gust
km/h
Spd
kts
Gust
kts
31/11:30pm - - - - - SSE 11 15 6 8 - - -
31/11:00pm - - - - - SSW 20 26 11 14 - - -
31/10:30pm - - - - - SSW 22 28 12 15 - - -
31/10:00pm - - - - - SSW 19 22 10 12 - - -
31/09:30pm - - - - - SSW 20 24 11 13 - - -
31/09:00pm - - - - - SSW 19 24 10 13 - - -
31/08:30pm - - - - - SSW 22 26 12 14 - - -
31/08:00pm - - - - - SSW 20 26 11 14 - - -
31/07:30pm - - - - - SSW 22 26 12 14 - - -
31/07:00pm - - - - - S 20 24 11 13 - - -
31/06:30pm - - - - - SE 9 13 5 7 - - -
31/06:00pm - - - - - SE 7 11 4 6 - - -
31/05:30pm - - - - - S 15 20 8 11 - - -
31/05:00pm - - - - - S 13 20 7 11 - - -
31/04:30pm - - - - - S 13 20 7 11 - - -
31/04:00pm - - - - - S 17 24 9 13 - - -
31/03:30pm - - - - - SE 15 22 8 12 - - -
31/03:00pm - - - - - S 19 30 10 16 - - -
31/02:30pm - - - - - SSE 17 30 9 16 - - -
31/02:00pm - - - - - SSE 20 33 11 18 - - -
31/01:30pm - - - - - SSE 17 28 9 15 - - -
31/01:00pm - - - - - S 15 22 8 12 - - -
31/12:30pm - - - - - SSE 13 20 7 11 - - -
31/12:00pm - - - - - S 20 28 11 15 - - -
31/11:30am - - - - - S 19 24 10 13 - - -
31/11:00am - - - - - SSW 20 32 11 17 - - -
31/10:30am - - - - - SSW 22 28 12 15 - - -
31/10:00am - - - - - SSW 17 20 9 11 - - -
31/09:30am - - - - - SSW 19 22 10 12 - - -
31/09:00am - - - - - SSW 15 20 8 11 - - -
31/08:30am - - - - - S 15 20 8 11 - - -
31/08:00am - - - - - S 17 20 9 11 - - -
31/07:30am - - - - - SE 9 15 5 8 - - -
31/07:00am - - - - - S 17 22 9 12 - - -
31/06:30am - - - - - SE 9 11 5 6 - - -
31/06:00am - - - - - ESE 7 11 4 6 - - -
31/05:30am - - - - - ESE 7 11 4 6 - - -
31/05:00am - - - - - SE 15 20 8 11 - - -
31/04:30am - - - - - S 19 28 10 15 - - -
31/04:00am - - - - - S 20 30 11 16 - - -
31/03:30am - - - - - SSE 17 24 9 13 - - -
31/03:00am - - - - - SSE 15 26 8 14 - - -
31/02:30am - - - - - S 19 24 10 13 - - -
31/02:00am - - - - - SSE 13 22 7 12 - - -
31/01:30am - - - - - SSE 13 26 7 14 - - -
31/01:00am - - - - - SSE 15 26 8 14 - - -
31/12:30am - - - - - SSE 13 22 7 12 - - -
31/12:00am - - - - - S 22 30 12 16 - - -
 
Date/Time
EST
Temp
°C
App
Temp
°C
Dew
Point
°C
Rel
Hum
%
Delta-T
°C
Wind Press
QNH
hPa
Press
MSL
hPa
Rain since
9am
mm
Dir  Spd
km/h
Gust
km/h
Spd
kts
Gust
kts
30/11:30pm - - - - - SSE 17 33 9 18 - - -
30/11:00pm - - - - - SSE 19 30 10 16 - - -
30/10:30pm - - - - - S 19 24 10 13 - - -
30/10:00pm - - - - - S 20 28 11 15 - - -
30/09:30pm - - - - - SSW 19 30 10 16 - - -
30/09:00pm - - - - - SSW 22 32 12 17 - - -
30/08:30pm - - - - - SSW 28 35 15 19 - - -

Other formats

Comma delimited format used in spreadsheet applications
http://www.bom.gov.au/fwo/IDN60801/IDN60801.95995.axf

JavaScript Object Notation format (JSON) in row-major order
http://www.bom.gov.au/fwo/IDN60801/IDN60801.95995.json

Data quality

Most of these data are generated automatically and are frequently updated. Quality checks on data are not normally performed. It is possible for incorrect values to appear. Refer to information at About Latest Weather Observations and please check the disclaimer before using these data.